Time;durP1;ratioP1;P1;durP2;ratioP2;P2;SDS_P1;SDS_P2;PMS_P1;PMS_P2;Temp;Humidity;BMP_temperature;BMP_pressure;BME280_temperature;BME280_humidity;BME280_pressure;Samples;Min_cycle;Max_cycle;Signal;HPM_P1;HPM_P2
2023/03/27 00:01:48;;;;;;;;;;;;;;;6.16;63.34;91505.25;2052045;70;20077;-75
2023/03/27 00:04:14;;;;;;;;;;;;;;;6.15;63.84;91512.19;2052352;70;20050;-75
2023/03/27 00:06:40;;;;;;;;;;;;;;;6.10;63.80;91502.09;2052386;70;20114;-74
2023/03/27 00:09:07;;;;;;;;;;;;;;;6.13;63.00;91498.06;2052414;70;20441;-75
2023/03/27 00:11:33;;;;;;;;;;;;;;;6.00;63.34;91499.47;2052292;70;20507;-74
2023/03/27 00:13:59;;;;;;;;;;;;;;;5.95;63.43;91494.22;2052320;70;20162;-74
2023/03/27 00:16:26;;;;;;;;;;;;;;;5.80;65.33;91498.25;2052383;69;20546;-74
2023/03/27 00:18:53;;;;;;;;;;;;;;;5.86;64.82;91490.97;2052285;70;20051;-75
2023/03/27 00:21:21;;;;;;;;;;;;;;;5.94;64.58;91496.28;2052259;70;20051;-77
2023/03/27 00:23:47;;;;;;;;;;;;;;;5.88;64.20;91501.50;2052253;70;20047;-74
2023/03/27 00:26:14;;;;;;;;;;;;;;;5.77;64.76;91485.47;2052380;70;20136;-75
2023/03/27 00:28:41;;;;;;;;;;;;;;;5.71;64.18;91499.09;2065345;69;20513;-74
2023/03/27 00:31:10;;;;;;;;;;;;;;;5.73;64.57;91504.81;2052239;70;20446;-75
2023/03/27 00:33:36;;;;;;;;;;;;;;;5.65;64.91;91496.69;2052169;70;20063;-75
2023/03/27 00:36:02;;;;;;;;;;;;;;;5.44;64.60;91502.38;2052513;70;20051;-73
2023/03/27 00:38:28;;;;;;;;;;;;;;;5.12;68.78;91495.56;2065406;69;20057;-75
2023/03/27 00:40:58;;;;;;;;;;;;;;;5.22;67.35;91485.03;2065318;69;20486;-75
2023/03/27 00:43:25;;;;;;;;;;;;;;;5.47;66.11;91485.16;2052196;70;20081;-77
2023/03/27 00:45:56;;;;;;;;;;;;;;;5.65;66.23;91495.97;2052263;70;20074;-75
2023/03/27 00:48:24;;;;;;;;;;;;;;;5.70;65.78;91503.22;2052270;70;20055;-75
2023/03/27 00:50:50;;;;;;;;;;;;;;;5.67;65.46;91504.44;2065271;69;20054;-76
2023/03/27 00:53:19;;;;;;;;;;;;;;;5.72;65.64;91504.06;2052169;70;20155;-75
2023/03/27 00:55:47;;;;;;;;;;;;;;;5.76;65.15;91518.28;2052044;69;20057;-75
2023/03/27 00:58:16;;;;;;;;;;;;;;;5.80;65.25;91520.59;2062308;69;20143;-75
2023/03/27 01:00:42;;;;;;;;;;;;;;;5.74;65.31;91523.03;2065208;69;20059;-77
2023/03/27 01:03:07;;;;;;;;;;;;;;;5.82;64.79;91527.03;2065223;69;20047;-76
2023/03/27 01:05:34;;;;;;;;;;;;;;;5.56;66.78;91520.59;2052282;70;20520;-76
2023/03/27 01:08:02;;;;;;;;;;;;;;;5.74;65.94;91518.16;2064983;69;20556;-75
2023/03/27 01:10:44;;;;;;;;;;;;;;;5.80;66.09;91532.47;2065219;69;20066;-75
2023/03/27 01:13:26;;;;;;;;;;;;;;;5.80;66.17;91531.75;2062461;69;20124;-76
2023/03/27 01:15:55;;;;;;;;;;;;;;;5.86;66.18;91526.50;2062387;69;20550;-75
2023/03/27 01:18:41;;;;;;;;;;;;;;;5.93;66.04;91533.22;2052205;70;20083;-75
2023/03/27 01:21:13;;;;;;;;;;;;;;;5.80;67.48;91528.97;2064888;69;20054;-76
2023/03/27 01:23:44;;;;;;;;;;;;;;;5.86;66.83;91537.69;2065069;69;20438;-77
2023/03/27 01:26:10;;;;;;;;;;;;;;;5.93;66.28;91533.22;2051984;70;20626;-75
2023/03/27 01:29:00;;;;;;;;;;;;;;;5.97;65.41;91522.28;2064971;69;20063;-75
2023/03/27 01:31:32;;;;;;;;;;;;;;;5.54;66.88;91523.28;2065097;69;20105;-75
2023/03/27 01:34:18;;;;;;;;;;;;;;;5.52;67.55;91516.84;2052268;70;20239;-77
2023/03/27 01:36:59;;;;;;;;;;;;;;;5.86;65.90;91520.94;2064822;69;20070;-75
2023/03/27 01:39:25;;;;;;;;;;;;;;;5.93;65.90;91510.88;2065319;69;20047;-74
2023/03/27 01:41:54;;;;;;;;;;;;;;;5.95;66.14;91508.19;2065382;69;20101;-75
2023/03/27 01:44:41;;;;;;;;;;;;;;;5.96;65.86;91504.81;2065149;69;20140;-75
2023/03/27 01:47:26;;;;;;;;;;;;;;;5.98;65.57;91507.72;2062354;69;20058;-75
2023/03/27 01:49:56;;;;;;;;;;;;;;;6.02;66.29;91501.63;2065329;69;20047;-75
2023/03/27 01:52:28;;;;;;;;;;;;;;;6.02;66.09;91501.63;2065192;69;20064;-76
2023/03/27 01:54:57;;;;;;;;;;;;;;;5.86;66.42;91507.72;2052209;70;20085;-77
2023/03/27 01:57:29;;;;;;;;;;;;;;;5.66;66.08;91509.31;2065058;69;20058;-75
2023/03/27 02:00:13;;;;;;;;;;;;;;;5.39;67.70;91495.09;2062499;69;20058;-75
2023/03/27 02:02:47;;;;;;;;;;;;;;;5.21;69.24;91495.47;2052328;70;20410;-76
2023/03/27 02:05:16;;;;;;;;;;;;;;;5.59;67.71;91499.13;2052238;69;20095;-75
2023/03/27 02:07:47;;;;;;;;;;;;;;;5.68;66.93;91500.31;2065112;69;20051;-74
2023/03/27 02:10:16;;;;;;;;;;;;;;;5.85;66.11;91492.28;2065391;69;20120;-74
2023/03/27 02:12:45;;;;;;;;;;;;;;;5.89;65.99;91491.06;2062104;69;20071;-75
2023/03/27 02:15:14;;;;;;;;;;;;;;;5.94;65.51;91479.53;2052349;70;20106;-75
2023/03/27 02:17:46;;;;;;;;;;;;;;;5.94;65.78;91481.59;2065225;69;20165;-74
2023/03/27 02:20:16;;;;;;;;;;;;;;;5.92;66.57;91479.44;2065604;69;20054;-75
2023/03/27 02:22:44;;;;;;;;;;;;;;;5.97;65.49;91481.13;2065682;69;20051;-75
2023/03/27 02:25:19;;;;;;;;;;;;;;;6.02;65.44;91480.00;2065663;69;20054;-75
2023/03/27 02:27:46;;;;;;;;;;;;;;;5.94;66.00;91482.34;2065322;69;20154;-75
2023/03/27 02:30:58;;;;;;;;;;;;;;;6.00;65.42;91481.94;2065552;69;20085;-76
2023/03/27 02:33:48;;;;;;;;;;;;;;;5.99;65.40;91491.69;2053966;69;20474;-76
2023/03/27 02:36:34;;;;;;;;;;;;;;;6.01;65.32;91495.31;2065498;69;20055;-75
2023/03/27 02:39:10;;;;;;;;;;;;;;;6.07;65.26;91506.13;2065472;69;20118;-76
2023/03/27 02:41:39;;;;;;;;;;;;;;;6.04;65.03;91508.06;2065585;69;20124;-75
2023/03/27 02:44:58;;;;;;;;;;;;;;;5.86;66.76;91512.56;2055031;69;20089;-75
2023/03/27 02:47:27;;;;;;;;;;;;;;;6.06;65.75;91519.34;2057124;69;20117;-75
2023/03/27 02:49:58;;;;;;;;;;;;;;;6.08;66.17;91518.75;2052698;69;20086;-76
2023/03/27 02:52:32;;;;;;;;;;;;;;;6.09;66.08;91518.16;2065765;69;20403;-75
2023/03/27 02:55:05;;;;;;;;;;;;;;;6.10;65.01;91527.25;2066022;69;20065;-75
2023/03/27 02:57:37;;;;;;;;;;;;;;;6.24;64.94;91539.25;2052651;70;20448;-75
2023/03/27 03:00:25;;;;;;;;;;;;;;;6.16;64.96;91541.56;2053971;69;20054;-76
2023/03/27 03:03:19;;;;;;;;;;;;;;;6.09;66.15;91540.50;2054460;69;20054;-73
2023/03/27 03:05:54;;;;;;;;;;;;;;;5.82;65.65;91546.56;2065703;69;20054;-74
2023/03/27 03:08:20;;;;;;;;;;;;;;;6.00;66.63;91555.34;2065448;69;20093;-76
2023/03/27 03:10:49;;;;;;;;;;;;;;;6.11;65.33;91559.44;2065452;69;20141;-76
2023/03/27 03:13:15;;;;;;;;;;;;;;;6.14;66.08;91563.06;2062740;69;20150;-76
2023/03/27 03:15:41;;;;;;;;;;;;;;;6.17;65.61;91557.00;2065487;69;20058;-76
2023/03/27 03:18:07;;;;;;;;;;;;;;;6.16;66.04;91558.34;2065068;69;20435;-76
2023/03/27 03:20:34;;;;;;;;;;;;;;;5.85;66.92;91544.63;2059987;69;20051;-76
2023/03/27 03:23:02;;;;;;;;;;;;;;;6.03;66.01;91548.50;2065407;69;20113;-74
2023/03/27 03:25:30;;;;;;;;;;;;;;;6.07;66.23;91559.94;2062678;69;20086;-76
2023/03/27 03:27:56;;;;;;;;;;;;;;;6.01;67.67;91556.78;2065051;69;20522;-76
2023/03/27 03:30:27;;;;;;;;;;;;;;;6.03;67.60;91561.75;2052497;70;20474;-76
2023/03/27 03:33:13;;;;;;;;;;;;;;;5.97;69.33;91567.72;2064979;69;20491;-74
2023/03/27 03:35:39;;;;;;;;;;;;;;;5.98;68.20;91565.66;2065214;69;20062;-74
2023/03/27 03:38:12;;;;;;;;;;;;;;;5.70;69.06;91575.84;2062820;69;20537;-74
2023/03/27 03:40:44;;;;;;;;;;;;;;;5.94;67.87;91576.56;2064833;69;20050;-73
2023/03/27 03:43:10;;;;;;;;;;;;;;;5.90;67.89;91577.03;2065499;69;20074;-75
2023/03/27 03:45:36;;;;;;;;;;;;;;;5.93;68.74;91583.50;2065485;69;20137;-73
2023/03/27 03:48:22;;;;;;;;;;;;;;;5.66;68.17;91586.75;2065067;69;20048;-74
2023/03/27 03:50:48;;;;;;;;;;;;;;;5.83;68.24;91584.34;2065032;69;20084;-74
2023/03/27 03:53:14;;;;;;;;;;;;;;;5.90;68.97;91591.00;2064854;69;20509;-75
2023/03/27 03:55:40;;;;;;;;;;;;;;;5.94;69.22;91588.47;2067789;69;20085;-75
2023/03/27 03:58:06;;;;;;;;;;;;;;;5.85;70.10;91601.19;2065041;69;20080;-75
2023/03/27 04:00:47;;;;;;;;;;;;;;;5.84;69.67;91605.34;2067822;69;20053;-74
2023/03/27 04:03:31;;;;;;;;;;;;;;;5.80;69.98;91602.28;2064458;69;20045;-73
2023/03/27 04:06:03;;;;;;;;;;;;;;;5.81;68.93;91609.34;2064496;69;20053;-72
2023/03/27 04:08:33;;;;;;;;;;;;;;;5.89;69.04;91616.75;2064866;69;20052;-74
2023/03/27 04:11:01;;;;;;;;;;;;;;;5.92;69.01;91618.38;2067782;69;20068;-74
2023/03/27 04:13:56;;;;;;;;;;;;;;;5.85;69.26;91626.34;2061704;69;20116;-74
2023/03/27 04:16:28;;;;;;;;;;;;;;;5.86;70.08;91619.44;2064831;69;20102;-74
2023/03/27 04:18:54;;;;;;;;;;;;;;;5.79;69.43;91623.19;2060173;69;20046;-74
2023/03/27 04:21:25;;;;;;;;;;;;;;;5.81;69.99;91626.09;2065431;69;20074;-74
2023/03/27 04:23:51;;;;;;;;;;;;;;;5.77;69.71;91634.25;2065334;69;20070;-75
2023/03/27 04:26:26;;;;;;;;;;;;;;;5.76;69.87;91621.59;2065351;69;20058;-73
2023/03/27 04:29:10;;;;;;;;;;;;;;;5.62;70.23;91637.50;2052311;70;20057;-74
2023/03/27 04:32:01;;;;;;;;;;;;;;;5.61;70.80;91633.25;2054161;69;20461;-75
2023/03/27 04:34:51;;;;;;;;;;;;;;;5.77;69.80;91631.44;2054592;69;20073;-75
2023/03/27 04:37:25;;;;;;;;;;;;;;;5.67;70.93;91639.19;2052261;70;20043;-74
2023/03/27 04:40:05;;;;;;;;;;;;;;;5.59;69.79;91649.88;2064990;69;20502;-74
2023/03/27 04:42:31;;;;;;;;;;;;;;;5.73;69.94;91652.81;2065228;69;20112;-75
2023/03/27 04:44:56;;;;;;;;;;;;;;;5.71;70.49;91659.00;2052369;70;20490;-75
2023/03/27 04:47:22;;;;;;;;;;;;;;;5.65;70.82;91661.41;2052140;69;20058;-75
2023/03/27 04:49:54;;;;;;;;;;;;;;;5.73;70.20;91673.09;2065304;69;20046;-74
2023/03/27 04:52:24;;;;;;;;;;;;;;;5.71;69.79;91672.94;2064793;69;20418;-76
2023/03/27 04:54:50;;;;;;;;;;;;;;;5.85;69.24;91673.81;2065238;69;20061;-74
2023/03/27 04:57:17;;;;;;;;;;;;;;;5.76;69.67;91676.72;2052265;70;20050;-75
2023/03/27 04:59:47;;;;;;;;;;;;;;;5.83;68.93;91684.16;2062414;69;20108;-75
2023/03/27 05:02:46;;;;;;;;;;;;;;;5.75;69.80;91689.97;2056681;69;20069;-75
2023/03/27 05:05:34;;;;;;;;;;;;;;;5.64;70.38;91690.69;2062729;69;20066;-74
2023/03/27 05:08:03;;;;;;;;;;;;;;;5.74;69.71;91699.69;2052121;70;20055;-75
2023/03/27 05:10:29;;;;;;;;;;;;;;;5.70;71.07;91707.06;2065205;69;20054;-75
2023/03/27 05:12:55;;;;;;;;;;;;;;;5.71;70.78;91717.63;2065310;69;20053;-74
2023/03/27 05:15:21;;;;;;;;;;;;;;;5.72;70.26;91709.97;2065273;69;20226;-74
2023/03/27 05:17:53;;;;;;;;;;;;;;;5.64;71.24;91720.66;2065150;69;20125;-74
2023/03/27 05:20:23;;;;;;;;;;;;;;;5.61;71.11;91725.38;2052392;70;20514;-73
2023/03/27 05:22:51;;;;;;;;;;;;;;;5.61;71.41;91728.91;2065265;69;20047;-75
2023/03/27 05:25:27;;;;;;;;;;;;;;;5.75;69.35;91726.25;2062597;69;20518;-76
2023/03/27 05:28:12;;;;;;;;;;;;;;;5.64;70.77;91740.22;2060680;69;20164;-75
2023/03/27 05:30:38;;;;;;;;;;;;;;;5.65;70.63;91741.66;2057759;69;20046;-76
2023/03/27 05:33:20;;;;;;;;;;;;;;;5.78;69.58;91758.56;2057370;69;20490;-75
2023/03/27 05:35:51;;;;;;;;;;;;;;;5.68;70.31;91766.31;2057764;69;20050;-76
2023/03/27 05:38:17;;;;;;;;;;;;;;;5.71;70.23;91765.09;2056726;69;20061;-76
2023/03/27 05:41:05;;;;;;;;;;;;;;;4.63;73.45;91765.75;2058762;69;20054;-76
2023/03/27 05:43:35;;;;;;;;;;;;;;;5.09;72.87;91776.50;2057865;69;20107;-76
2023/03/27 05:46:02;;;;;;;;;;;;;;;5.44;70.90;91782.22;2041702;69;20073;-77
2023/03/27 05:48:37;;;;;;;;;;;;;;;5.40;71.87;91781.97;2060494;69;20159;-76
2023/03/27 05:51:08;;;;;;;;;;;;;;;5.40;71.33;91795.91;2057605;69;20502;-75
2023/03/27 05:53:38;;;;;;;;;;;;;;;4.94;72.62;91791.53;2057799;69;20054;-76
2023/03/27 05:56:22;;;;;;;;;;;;;;;4.79;73.20;91798.25;2057861;69;20150;-75
2023/03/27 05:58:53;;;;;;;;;;;;;;;5.16;71.54;91805.50;2058466;69;20116;-74
2023/03/27 06:01:21;;;;;;;;;;;;;;;5.32;71.48;91820.53;2065149;69;20059;-76
2023/03/27 06:03:53;;;;;;;;;;;;;;;5.26;71.05;91817.31;2064892;69;20059;-75
2023/03/27 06:06:22;;;;;;;;;;;;;;;5.22;70.75;91828.97;2065133;69;20054;-75
2023/03/27 06:08:54;;;;;;;;;;;;;;;5.25;71.13;91832.63;2044136;69;20479;-76
2023/03/27 06:11:21;;;;;;;;;;;;;;;5.33;70.31;91838.75;2065072;69;20059;-76
2023/03/27 06:13:47;;;;;;;;;;;;;;;5.33;69.89;91859.00;2065604;69;20057;-76
2023/03/27 06:16:19;;;;;;;;;;;;;;;5.37;69.34;91861.34;2064998;69;20162;-76
2023/03/27 06:19:04;;;;;;;;;;;;;;;5.13;70.79;91849.28;2052398;70;20053;-75
2023/03/27 06:21:30;;;;;;;;;;;;;;;5.12;70.57;91880.56;2065332;69;20050;-77
2023/03/27 06:23:58;;;;;;;;;;;;;;;5.18;70.70;91898.47;2065082;69;20066;-77
2023/03/27 06:26:27;;;;;;;;;;;;;;;4.80;71.21;91897.28;2065539;69;20051;-76
2023/03/27 06:28:54;;;;;;;;;;;;;;;5.01;70.68;91916.16;2062515;69;20079;-76
2023/03/27 06:31:20;;;;;;;;;;;;;;;5.07;70.25;91910.97;2065125;69;20083;-77
2023/03/27 06:34:04;;;;;;;;;;;;;;;4.48;72.54;91915.28;2052156;70;20065;-77
2023/03/27 06:36:45;;;;;;;;;;;;;;;4.54;71.84;91926.88;2065097;69;20071;-77
2023/03/27 06:39:11;;;;;;;;;;;;;;;4.85;71.86;91929.69;2065236;69;20098;-76
2023/03/27 06:41:39;;;;;;;;;;;;;;;4.95;71.19;91932.47;2065455;69;20067;-74
2023/03/27 06:44:06;;;;;;;;;;;;;;;5.01;70.75;91946.84;2052286;70;20089;-75
2023/03/27 06:46:52;;;;;;;;;;;;;;;4.92;70.38;91952.44;2051973;70;20045;-75
2023/03/27 06:49:24;;;;;;;;;;;;;;;4.85;70.49;91954.06;2065377;69;20125;-76
2023/03/27 06:51:50;;;;;;;;;;;;;;;5.01;69.90;91965.63;2065440;69;20138;-76
2023/03/27 06:54:19;;;;;;;;;;;;;;;5.16;69.45;91970.13;2065940;69;20430;-75
2023/03/27 06:56:48;;;;;;;;;;;;;;;5.07;69.66;91985.56;2065148;69;20078;-76
2023/03/27 06:59:16;;;;;;;;;;;;;;;4.34;72.04;91989.53;2065059;69;20061;-75
2023/03/27 07:01:46;;;;;;;;;;;;;;;4.57;71.06;91992.59;2064972;69;20051;-76
2023/03/27 07:04:30;;;;;;;;;;;;;;;4.42;72.89;92006.13;2052880;70;20057;-77
2023/03/27 07:07:15;;;;;;;;;;;;;;;4.52;71.84;92021.50;2065596;69;20513;-77
2023/03/27 07:09:41;;;;;;;;;;;;;;;4.69;71.60;92023.41;2065620;69;20071;-76
2023/03/27 07:12:09;;;;;;;;;;;;;;;4.22;72.94;92028.41;2062787;69;20478;-76
2023/03/27 07:14:37;;;;;;;;;;;;;;;3.78;75.58;92039.78;2065527;69;20083;-75
2023/03/27 07:17:03;;;;;;;;;;;;;;;4.02;74.82;92052.72;2052429;70;20089;-75
2023/03/27 07:19:45;;;;;;;;;;;;;;;4.06;73.64;92038.34;2065459;69;20066;-74
2023/03/27 07:22:11;;;;;;;;;;;;;;;4.36;72.62;92067.00;2065497;69;20139;-77
2023/03/27 07:24:37;;;;;;;;;;;;;;;4.30;72.79;92064.47;2065471;69;20137;-75
2023/03/27 07:27:03;;;;;;;;;;;;;;;4.42;72.47;92084.16;2065430;69;20051;-75
2023/03/27 07:29:31;;;;;;;;;;;;;;;4.61;71.64;92080.63;2065386;69;20071;-76
2023/03/27 07:31:58;;;;;;;;;;;;;;;4.74;71.31;92091.34;2065303;69;20051;-75
2023/03/27 07:34:46;;;;;;;;;;;;;;;4.67;71.10;92090.16;2052462;69;20112;-76
2023/03/27 07:37:31;;;;;;;;;;;;;;;4.73;71.17;92098.97;2052474;70;20061;-74
2023/03/27 07:40:20;;;;;;;;;;;;;;;4.83;71.47;92101.75;2052474;70;20437;-76
2023/03/27 07:42:57;;;;;;;;;;;;;;;4.68;71.24;92097.22;2065365;69;20059;-77
2023/03/27 07:45:23;;;;;;;;;;;;;;;4.90;71.08;92114.06;2065436;69;20055;-76
2023/03/27 07:48:03;;;;;;;;;;;;;;;5.00;71.18;92132.28;2052316;70;20059;-75
2023/03/27 07:50:29;;;;;;;;;;;;;;;4.99;71.94;92133.56;2064729;69;20087;-75
2023/03/27 07:52:56;;;;;;;;;;;;;;;5.06;71.60;92137.56;2065284;69;20181;-75
2023/03/27 07:55:28;;;;;;;;;;;;;;;5.19;70.82;92151.03;2065357;69;20054;-75
2023/03/27 07:58:02;;;;;;;;;;;;;;;5.21;70.64;92144.88;2065830;69;20506;-75
2023/03/27 08:00:31;;;;;;;;;;;;;;;5.28;70.72;92161.47;2065903;69;20486;-75
2023/03/27 08:03:09;;;;;;;;;;;;;;;5.29;71.00;92170.56;2065423;69;20142;-74
2023/03/27 08:05:36;;;;;;;;;;;;;;;4.71;73.57;92165.72;2065636;69;20490;-74
2023/03/27 08:08:09;;;;;;;;;;;;;;;4.28;74.72;92170.94;2065458;69;20074;-72
2023/03/27 08:10:46;;;;;;;;;;;;;;;5.15;72.78;92187.03;2065555;69;20430;-73
2023/03/27 08:13:15;;;;;;;;;;;;;;;5.40;71.45;92189.50;2065488;69;20155;-73
2023/03/27 08:15:42;;;;;;;;;;;;;;;5.45;71.28;92184.94;2065279;69;20572;-74
2023/03/27 08:18:20;;;;;;;;;;;;;;;5.50;70.93;92195.09;2065284;69;20051;-74
2023/03/27 08:20:47;;;;;;;;;;;;;;;5.64;70.71;92186.97;2065293;69;20055;-72
2023/03/27 08:23:13;;;;;;;;;;;;;;;4.92;70.55;92189.53;2065306;69;20482;-72
2023/03/27 08:25:59;;;;;;;;;;;;;;;4.99;72.15;92200.53;2052342;70;20057;-72
2023/03/27 08:28:29;;;;;;;;;;;;;;;5.40;71.68;92202.72;2065443;69;20050;-72
2023/03/27 08:30:56;;;;;;;;;;;;;;;5.58;70.35;92209.59;2065171;69;20492;-72
2023/03/27 08:33:22;;;;;;;;;;;;;;;5.72;69.75;92207.81;2065178;69;20133;-73
2023/03/27 08:35:51;;;;;;;;;;;;;;;4.98;72.33;92206.69;2065055;69;20145;-73
2023/03/27 08:38:18;;;;;;;;;;;;;;;5.59;71.30;92223.00;2065267;69;20057;-73
2023/03/27 08:41:02;;;;;;;;;;;;;;;5.51;70.28;92224.47;2065532;69;20054;-73
2023/03/27 08:43:48;;;;;;;;;;;;;;;4.98;72.06;92226.97;2053612;69;20046;-74
2023/03/27 08:46:25;;;;;;;;;;;;;;;5.35;71.78;92229.59;2065419;69;20080;-73
2023/03/27 08:48:57;;;;;;;;;;;;;;;4.90;73.23;92229.16;2064924;69;20502;-73
2023/03/27 08:51:27;;;;;;;;;;;;;;;4.52;74.43;92224.97;2065280;69;20046;-74
2023/03/27 08:54:20;;;;;;;;;;;;;;;4.92;74.34;92234.88;2062143;69;20054;-74
2023/03/27 08:56:49;;;;;;;;;;;;;;;5.34;72.67;92228.88;2035578;70;20465;-73
2023/03/27 08:59:20;;;;;;;;;;;;;;;5.55;71.65;92238.72;2038363;70;20539;-74
2023/03/27 09:01:53;;;;;;;;;;;;;;;5.51;71.91;92241.94;2038362;70;20107;-74
2023/03/27 09:04:43;;;;;;;;;;;;;;;5.63;71.54;92232.97;2038428;70;20056;-74
2023/03/27 09:07:11;;;;;;;;;;;;;;;5.56;71.12;92234.59;2038447;69;20091;-74
2023/03/27 09:10:10;;;;;;;;;;;;;;;5.98;70.45;92239.69;2038012;70;20182;-73
2023/03/27 09:13:00;;;;;;;;;;;;;;;6.40;69.02;92246.00;2035681;70;20580;-73
2023/03/27 09:15:33;;;;;;;;;;;;;;;6.39;68.27;92244.53;2035673;70;20230;-74
2023/03/27 09:18:02;;;;;;;;;;;;;;;6.36;67.68;92249.97;2038265;70;20433;-74
2023/03/27 09:20:33;;;;;;;;;;;;;;;6.19;68.83;92250.22;2035690;70;20106;-74
2023/03/27 09:23:20;;;;;;;;;;;;;;;6.36;68.67;92246.47;2038316;70;20432;-74
2023/03/27 09:26:28;;;;;;;;;;;;;;;6.68;67.68;92252.78;2038798;69;20154;-72
2023/03/27 09:29:14;;;;;;;;;;;;;;;5.09;70.65;92251.50;2038400;70;20083;-71
2023/03/27 09:31:46;;;;;;;;;;;;;;;5.71;70.52;92258.66;2035530;70;20052;-72
2023/03/27 09:34:13;;;;;;;;;;;;;;;6.16;70.30;92262.56;2057249;69;20090;-71
2023/03/27 09:36:39;;;;;;;;;;;;;;;5.63;71.26;92263.69;2064939;69;20069;-73
2023/03/27 09:39:11;;;;;;;;;;;;;;;6.00;71.23;92267.78;2065265;69;20061;-72
2023/03/27 09:41:41;;;;;;;;;;;;;;;6.86;68.57;92273.59;2065201;69;20086;-72
2023/03/27 09:44:13;;;;;;;;;;;;;;;6.52;66.48;92272.00;2062513;69;20047;-72
2023/03/27 09:46:45;;;;;;;;;;;;;;;5.98;67.44;92269.69;2065125;69;20077;-72
2023/03/27 09:49:13;;;;;;;;;;;;;;;6.80;65.26;92276.72;2052162;69;20070;-73
2023/03/27 09:51:45;;;;;;;;;;;;;;;7.08;63.21;92282.75;2065154;69;20131;-73
2023/03/27 09:54:30;;;;;;;;;;;;;;;7.30;63.99;92284.25;2065194;69;20573;-72
2023/03/27 09:57:07;;;;;;;;;;;;;;;7.33;64.29;92294.25;2065150;69;20061;-73
2023/03/27 09:59:36;;;;;;;;;;;;;;;6.65;64.36;92293.16;2065221;69;20046;-71
2023/03/27 10:02:24;;;;;;;;;;;;;;;7.43;64.97;92301.84;2063876;69;20050;-71
2023/03/27 10:04:57;;;;;;;;;;;;;;;7.14;63.71;92316.75;2065173;69;20077;-72
2023/03/27 10:07:25;;;;;;;;;;;;;;;7.42;63.44;92315.09;2064982;69;20104;-72
2023/03/27 10:10:14;;;;;;;;;;;;;;;6.49;65.61;92327.06;2062737;69;20087;-72
2023/03/27 10:13:04;;;;;;;;;;;;;;;6.61;65.58;92332.78;2054394;69;20506;-73
2023/03/27 10:15:44;;;;;;;;;;;;;;;5.41;69.88;92341.00;2051980;70;20433;-73
2023/03/27 10:18:28;;;;;;;;;;;;;;;5.50;64.67;92349.38;2064938;69;20080;-75
2023/03/27 10:21:10;;;;;;;;;;;;;;;5.26;66.72;92348.28;2065160;69;20055;-74
2023/03/27 10:23:42;;;;;;;;;;;;;;;6.17;66.26;92347.88;2064992;69;20055;-75
2023/03/27 10:26:24;;;;;;;;;;;;;;;6.59;65.54;92358.50;2064995;69;20149;-76
2023/03/27 10:28:51;;;;;;;;;;;;;;;6.20;64.16;92362.75;2065048;69;20406;-75
2023/03/27 10:31:29;;;;;;;;;;;;;;;6.17;62.92;92367.44;2051941;70;20062;-76
2023/03/27 10:34:02;;;;;;;;;;;;;;;6.69;61.96;92383.69;2064896;69;20060;-76
2023/03/27 10:36:48;;;;;;;;;;;;;;;6.23;60.98;92381.13;2052007;70;20061;-75
2023/03/27 10:39:18;;;;;;;;;;;;;;;6.22;62.50;92377.59;2046871;69;20057;-73
2023/03/27 10:42:05;;;;;;;;;;;;;;;6.03;61.67;92386.72;2063187;69;20482;-73
2023/03/27 10:44:32;;;;;;;;;;;;;;;6.41;61.52;92395.66;2065471;69;20070;-74
2023/03/27 10:46:58;;;;;;;;;;;;;;;6.27;60.21;92400.97;2065355;69;20047;-74
2023/03/27 10:49:33;;;;;;;;;;;;;;;5.68;60.54;92405.06;2062821;69;20482;-75
2023/03/27 10:52:08;;;;;;;;;;;;;;;6.32;59.13;92411.88;2064931;69;20081;-75
2023/03/27 10:54:53;;;;;;;;;;;;;;;6.19;57.38;92415.13;2065318;69;20149;-75
2023/03/27 10:57:22;;;;;;;;;;;;;;;6.91;58.33;92420.13;2065565;69;20095;-75
2023/03/27 10:59:53;;;;;;;;;;;;;;;6.86;56.09;92411.44;2065585;69;20056;-75
2023/03/27 11:03:04;;;;;;;;;;;;;;;6.34;55.49;92428.78;2065383;69;20112;-73
2023/03/27 11:05:43;;;;;;;;;;;;;;;6.12;51.93;92429.97;2064513;69;20140;-73
2023/03/27 11:08:22;;;;;;;;;;;;;;;6.56;53.00;92429.63;2062619;69;20182;-73
2023/03/27 11:10:51;;;;;;;;;;;;;;;7.23;53.77;92436.34;2052716;69;20050;-74
2023/03/27 11:13:30;;;;;;;;;;;;;;;7.64;57.88;92444.69;2065383;69;20066;-73
2023/03/27 11:16:02;;;;;;;;;;;;;;;7.87;59.21;92446.91;2062744;69;20090;-74
2023/03/27 11:19:06;;;;;;;;;;;;;;;7.08;54.29;92448.63;2054885;69;20560;-74
2023/03/27 11:21:46;;;;;;;;;;;;;;;7.45;52.20;92450.41;2062855;69;20144;-74
2023/03/27 11:24:25;;;;;;;;;;;;;;;6.51;54.17;92455.13;2064824;69;20070;-74
2023/03/27 11:27:15;;;;;;;;;;;;;;;6.26;54.14;92453.34;2064889;69;20054;-73
2023/03/27 11:29:57;;;;;;;;;;;;;;;6.85;52.17;92456.81;2052691;70;20047;-72
2023/03/27 11:32:42;;;;;;;;;;;;;;;6.29;52.76;92449.41;2065447;69;20058;-73
2023/03/27 11:35:13;;;;;;;;;;;;;;;6.71;56.01;92456.56;2065492;69;20046;-72
2023/03/27 11:37:58;;;;;;;;;;;;;;;7.62;57.25;92467.72;2065443;69;20058;-73
2023/03/27 11:40:29;;;;;;;;;;;;;;;6.40;50.22;92469.69;2052479;70;20058;-72
2023/03/27 11:43:00;;;;;;;;;;;;;;;7.35;53.31;92473.59;2065522;69;20154;-73
2023/03/27 11:45:36;;;;;;;;;;;;;;;7.31;52.45;92461.38;2064817;69;20046;-73
2023/03/27 11:48:06;;;;;;;;;;;;;;;7.98;52.92;92476.38;2067908;69;20068;-73
2023/03/27 11:50:38;;;;;;;;;;;;;;;8.14;56.55;92483.03;2067904;69;20119;-74
2023/03/27 11:53:22;;;;;;;;;;;;;;;8.50;55.79;92486.78;2068144;69;20065;-74
2023/03/27 11:56:22;;;;;;;;;;;;;;;8.37;55.22;92483.19;2068679;69;20047;-74
2023/03/27 11:59:03;;;;;;;;;;;;;;;8.65;54.99;92483.56;2067886;69;20056;-73
2023/03/27 12:01:36;;;;;;;;;;;;;;;8.71;54.72;92489.56;2067950;69;20139;-74
2023/03/27 12:04:10;;;;;;;;;;;;;;;8.75;52.50;92486.28;2067901;69;20056;-75
2023/03/27 12:07:07;;;;;;;;;;;;;;;8.87;51.08;92490.59;2065482;69;20504;-75
2023/03/27 12:09:58;;;;;;;;;;;;;;;9.61;49.27;92495.13;2068016;69;20182;-74
2023/03/27 12:13:09;;;;;;;;;;;;;;;7.93;45.79;92489.38;2062999;69;20127;-74
2023/03/27 12:15:35;;;;;;;;;;;;;;;9.45;49.08;92502.59;2068111;69;20053;-74
2023/03/27 12:18:07;;;;;;;;;;;;;;;9.72;47.71;92502.84;2068070;69;20041;-74
2023/03/27 12:20:45;;;;;;;;;;;;;;;9.40;45.91;92510.75;2068168;69;20048;-74
2023/03/27 12:23:23;;;;;;;;;;;;;;;9.66;45.25;92506.00;2068160;69;20053;-74
2023/03/27 12:26:11;;;;;;;;;;;;;;;9.91;43.28;92518.72;2068812;69;20064;-73
2023/03/27 12:28:59;;;;;;;;;;;;;;;8.52;43.07;92520.59;2068659;69;20060;-73
2023/03/27 12:31:52;;;;;;;;;;;;;;;9.30;43.10;92518.56;2067993;69;20045;-73
2023/03/27 12:34:31;;;;;;;;;;;;;;;8.20;40.76;92513.53;2068060;69;20138;-74
2023/03/27 12:36:58;;;;;;;;;;;;;;;7.71;39.87;92513.09;2068079;69;20132;-73
2023/03/27 12:39:26;;;;;;;;;;;;;;;7.27;41.49;92517.09;2068096;69;20052;-74
2023/03/27 12:41:55;;;;;;;;;;;;;;;7.77;40.84;92519.13;2068137;69;20136;-74
2023/03/27 12:44:29;;;;;;;;;;;;;;;8.26;39.91;92523.13;2068064;69;20056;-74
2023/03/27 12:47:14;;;;;;;;;;;;;;;7.92;40.07;92515.94;2067545;69;20052;-73
2023/03/27 12:49:40;;;;;;;;;;;;;;;8.58;39.05;92510.50;2065214;69;20359;-73
2023/03/27 12:52:07;;;;;;;;;;;;;;;8.86;39.11;92511.59;2062440;69;20047;-74
2023/03/27 12:55:04;;;;;;;;;;;;;;;8.48;37.93;92520.34;2062797;69;20532;-73
2023/03/27 12:57:51;;;;;;;;;;;;;;;9.24;39.28;92514.63;2053286;69;20483;-72
2023/03/27 13:00:27;;;;;;;;;;;;;;;8.84;38.41;92527.56;2065352;69;20062;-71
2023/03/27 13:03:12;;;;;;;;;;;;;;;8.07;39.12;92526.03;2065154;69;20158;-71
2023/03/27 13:06:00;;;;;;;;;;;;;;;8.01;38.57;92523.53;2052292;70;20134;-73
2023/03/27 13:08:28;;;;;;;;;;;;;;;7.90;39.05;92521.41;2065284;69;20062;-72
2023/03/27 13:11:01;;;;;;;;;;;;;;;8.20;40.09;92530.38;2065427;69;20110;-73
2023/03/27 13:13:43;;;;;;;;;;;;;;;8.29;39.99;92529.56;2052296;70;20093;-73
2023/03/27 13:16:19;;;;;;;;;;;;;;;9.22;40.42;92534.91;2065189;69;20050;-72
2023/03/27 13:18:47;;;;;;;;;;;;;;;9.67;39.38;92540.50;2065303;69;20120;-74
2023/03/27 13:21:32;;;;;;;;;;;;;;;8.71;38.76;92545.72;2065257;69;20054;-72
2023/03/27 13:24:16;;;;;;;;;;;;;;;8.33;38.65;92535.44;2065203;69;20049;-73
2023/03/27 13:26:50;;;;;;;;;;;;;;;8.94;38.97;92544.34;2064828;69;20047;-73
2023/03/27 13:29:22;;;;;;;;;;;;;;;9.41;40.22;92545.19;2065264;69;20487;-72
2023/03/27 13:31:58;;;;;;;;;;;;;;;9.01;38.57;92541.31;2065170;69;20046;-73
2023/03/27 13:34:27;;;;;;;;;;;;;;;9.23;38.94;92547.59;2052343;70;20054;-74
2023/03/27 13:37:08;;;;;;;;;;;;;;;9.23;39.41;92544.06;2065197;69;20051;-73